createdAt,value
2022-12-11T00:02:23.680Z,10.05
2022-12-11T00:04:50.623Z,6.50
2022-12-11T00:07:17.781Z,8.45
2022-12-11T00:09:44.797Z,9.35
2022-12-11T00:12:11.997Z,6.30
2022-12-11T00:14:39.060Z,8.02
2022-12-11T00:17:06.346Z,7.95
2022-12-11T00:19:33.488Z,9.85
2022-12-11T00:22:00.559Z,7.40
2022-12-11T00:24:29.934Z,6.95
2022-12-11T00:26:57.019Z,9.13
2022-12-11T00:29:23.981Z,8.02
2022-12-11T00:31:52.233Z,7.00
2022-12-11T00:34:19.242Z,7.57
2022-12-11T00:36:46.255Z,8.30
2022-12-11T00:39:13.306Z,6.78
2022-12-11T00:41:40.347Z,8.65
2022-12-11T00:44:07.282Z,5.78
2022-12-11T00:46:34.353Z,9.93
2022-12-11T00:49:01.462Z,9.70
2022-12-11T00:51:28.492Z,9.98
2022-12-11T00:53:55.930Z,6.20
2022-12-11T00:56:24.631Z,11.13
2022-12-11T00:58:51.820Z,6.05
2022-12-11T01:01:22.148Z,5.82
2022-12-11T01:03:49.919Z,7.40
2022-12-11T01:06:24.246Z,7.47
2022-12-11T01:09:14.538Z,10.00
2022-12-11T01:11:43.074Z,7.43
2022-12-11T01:14:11.929Z,6.93
2022-12-11T01:16:39.628Z,6.00
2022-12-11T01:19:06.921Z,7.90
2022-12-11T01:21:34.014Z,9.68
2022-12-11T01:24:01.160Z,7.72
2022-12-11T01:26:28.296Z,9.07
2022-12-11T01:28:55.477Z,8.18
2022-12-11T01:31:22.577Z,6.80
2022-12-11T01:33:49.741Z,8.55
2022-12-11T01:36:21.919Z,8.43
2022-12-11T01:38:49.944Z,10.80
2022-12-11T01:41:18.827Z,11.57
2022-12-11T01:44:02.198Z,7.85
2022-12-11T01:46:30.608Z,10.20
2022-12-11T01:48:59.157Z,7.95
2022-12-11T01:51:27.246Z,10.43
2022-12-11T01:54:01.015Z,6.22
2022-12-11T01:56:32.563Z,10.07
2022-12-11T01:59:07.199Z,11.10
2022-12-11T02:01:45.378Z,9.95
2022-12-11T02:04:16.107Z,9.00
2022-12-11T02:06:47.190Z,10.15
2022-12-11T02:09:17.409Z,9.15
2022-12-11T02:12:06.941Z,7.28
2022-12-11T02:15:03.458Z,8.48
2022-12-11T02:17:51.340Z,7.55
2022-12-11T02:20:37.116Z,9.18
2022-12-11T02:23:33.006Z,4.53
2022-12-11T02:26:29.636Z,5.50
2022-12-11T02:29:03.289Z,9.93
2022-12-11T02:31:38.735Z,6.35
2022-12-11T02:34:12.328Z,9.68
2022-12-11T02:36:44.141Z,5.20
2022-12-11T02:39:15.252Z,5.43
2022-12-11T02:41:52.326Z,7.03
2022-12-11T02:44:33.602Z,7.72
2022-12-11T02:47:03.091Z,5.57
2022-12-11T02:49:32.445Z,5.07
2022-12-11T02:52:03.613Z,8.05
2022-12-11T02:54:34.096Z,6.72
2022-12-11T02:57:08.845Z,8.35
2022-12-11T02:59:41.715Z,5.68
2022-12-11T03:02:09.563Z,8.88
2022-12-11T03:04:37.191Z,7.10
2022-12-11T03:07:12.478Z,8.90
2022-12-11T03:09:40.937Z,4.25
2022-12-11T03:12:17.333Z,7.18
2022-12-11T03:14:44.854Z,8.27
2022-12-11T03:17:17.538Z,6.63
2022-12-11T03:20:15.169Z,7.88
2022-12-11T03:22:59.772Z,6.15
2022-12-11T03:25:36.180Z,6.45
2022-12-11T03:28:14.194Z,5.18
2022-12-11T03:30:44.176Z,6.63
2022-12-11T03:33:18.146Z,5.63
2022-12-11T03:35:51.728Z,7.85
2022-12-11T03:38:24.077Z,7.82
2022-12-11T03:40:55.856Z,5.32
2022-12-11T03:43:23.530Z,7.55
2022-12-11T03:45:53.884Z,10.35
2022-12-11T03:48:22.984Z,10.57
2022-12-11T03:50:51.167Z,6.75
2022-12-11T03:53:19.326Z,7.45
2022-12-11T03:55:48.262Z,10.35
2022-12-11T03:58:15.501Z,9.05
2022-12-11T04:00:42.833Z,3.33
2022-12-11T04:03:14.076Z,8.60
2022-12-11T04:05:43.948Z,5.90
2022-12-11T04:08:11.597Z,8.38
2022-12-11T04:10:39.821Z,6.47
2022-12-11T04:13:07.322Z,6.07
2022-12-11T04:15:34.866Z,10.75
2022-12-11T04:18:20.511Z,5.15
2022-12-11T04:21:06.281Z,11.90
2022-12-11T04:23:54.284Z,13.45
2022-12-11T04:26:21.596Z,9.10
2022-12-11T04:28:49.712Z,6.40
2022-12-11T04:31:20.231Z,7.00
2022-12-11T04:33:48.013Z,5.07
2022-12-11T04:36:15.195Z,14.73
2022-12-11T04:38:42.196Z,8.82
2022-12-11T04:41:16.013Z,9.07
2022-12-11T04:43:47.091Z,9.02
2022-12-11T04:46:18.208Z,11.15
2022-12-11T04:48:53.794Z,8.10
2022-12-11T04:51:24.211Z,15.35
2022-12-11T04:53:51.365Z,8.50
2022-12-11T04:56:19.039Z,15.50
2022-12-11T04:58:47.432Z,10.73
2022-12-11T05:01:18.788Z,11.40
2022-12-11T05:03:46.607Z,8.18
2022-12-11T05:06:14.700Z,14.02
2022-12-11T05:08:42.808Z,8.77
2022-12-11T05:11:12.386Z,5.90
2022-12-11T05:13:39.860Z,9.50
2022-12-11T05:16:11.353Z,9.70
2022-12-11T05:18:38.608Z,12.23
2022-12-11T05:21:08.530Z,7.65
2022-12-11T05:23:36.286Z,11.52
2022-12-11T05:26:11.073Z,11.45
2022-12-11T05:28:39.781Z,7.78
2022-12-11T05:31:12.196Z,11.40
2022-12-11T05:33:39.535Z,4.90
2022-12-11T05:36:07.746Z,9.65
2022-12-11T05:38:35.082Z,12.90
2022-12-11T05:41:07.914Z,16.00
2022-12-11T05:43:37.034Z,11.70
2022-12-11T05:46:14.553Z,15.20
2022-12-11T05:48:42.864Z,12.68
2022-12-11T05:51:10.766Z,13.75
2022-12-11T05:53:39.358Z,8.68
2022-12-11T05:56:10.946Z,12.95
2022-12-11T05:58:38.399Z,10.98
2022-12-11T06:01:23.208Z,14.48
2022-12-11T06:04:18.119Z,11.43
2022-12-11T06:06:56.934Z,14.93
2022-12-11T06:09:24.249Z,10.30
2022-12-11T06:11:51.303Z,12.43
2022-12-11T06:14:18.402Z,9.35
2022-12-11T06:16:45.396Z,12.95
2022-12-11T06:19:18.483Z,6.30
2022-12-11T06:21:48.913Z,13.23
2022-12-11T06:24:16.829Z,8.68
2022-12-11T06:26:43.871Z,13.05
2022-12-11T06:29:13.060Z,12.18
2022-12-11T06:31:40.601Z,13.70
2022-12-11T06:34:07.773Z,6.93
2022-12-11T06:36:34.840Z,15.63
2022-12-11T06:39:01.878Z,14.13
2022-12-11T06:41:28.942Z,9.93
2022-12-11T06:43:56.140Z,6.75
2022-12-11T06:46:23.349Z,11.50
2022-12-11T06:48:51.194Z,16.95
2022-12-11T06:51:23.326Z,18.95
2022-12-11T06:53:55.729Z,13.65
2022-12-11T06:56:24.647Z,12.83
2022-12-11T06:58:52.178Z,9.10
2022-12-11T07:01:26.225Z,10.00
2022-12-11T07:03:57.529Z,15.23
2022-12-11T07:06:26.395Z,12.20
2022-12-11T07:08:53.368Z,12.30
2022-12-11T07:11:21.455Z,8.13
2022-12-11T07:13:49.096Z,12.38
2022-12-11T07:16:17.785Z,14.43
2022-12-11T07:18:49.112Z,11.90
2022-12-11T07:21:16.371Z,14.43
2022-12-11T07:23:43.696Z,16.15
2022-12-11T07:26:16.744Z,14.77
2022-12-11T07:28:44.149Z,10.50
2022-12-11T07:31:17.190Z,9.90
2022-12-11T07:33:44.879Z,15.98
2022-12-11T07:36:13.377Z,13.20
2022-12-11T07:38:41.028Z,15.18
2022-12-11T07:41:11.292Z,15.43
2022-12-11T07:43:38.652Z,16.23
2022-12-11T07:46:11.408Z,16.65
2022-12-11T07:48:40.811Z,19.27
2022-12-11T07:51:19.989Z,20.95
2022-12-11T07:53:50.425Z,14.18
2022-12-11T07:56:19.390Z,15.88
2022-12-11T07:58:47.362Z,12.15
2022-12-11T08:01:17.489Z,14.40
2022-12-11T08:03:45.174Z,11.27
2022-12-11T08:06:12.865Z,12.30
2022-12-11T08:08:41.658Z,11.43
2022-12-11T08:11:12.049Z,15.13
2022-12-11T08:13:40.322Z,12.82
2022-12-11T08:16:09.559Z,15.32
2022-12-11T08:18:38.291Z,13.88
2022-12-11T08:21:07.107Z,13.38
2022-12-11T08:23:34.704Z,12.02
2022-12-11T08:26:11.204Z,12.63
2022-12-11T08:28:38.336Z,10.95
2022-12-11T08:31:08.170Z,16.08
2022-12-11T08:33:37.621Z,10.63
2022-12-11T08:36:09.846Z,17.60
2022-12-11T08:38:37.693Z,14.18
2022-12-11T08:41:12.896Z,14.32
2022-12-11T08:43:40.759Z,16.25
2022-12-11T08:46:08.721Z,25.55
2022-12-11T08:48:37.867Z,16.42
2022-12-11T08:51:08.628Z,13.15
2022-12-11T08:53:35.678Z,14.60
2022-12-11T08:56:08.246Z,14.45
2022-12-11T08:58:35.948Z,10.87
2022-12-11T09:01:12.375Z,18.73
2022-12-11T09:03:40.666Z,22.33
2022-12-11T09:06:09.977Z,9.30
2022-12-11T09:08:37.285Z,9.27
2022-12-11T09:11:07.339Z,14.10
2022-12-11T09:13:34.630Z,9.93
2022-12-11T09:16:05.178Z,17.35
2022-12-11T09:18:32.410Z,15.10
2022-12-11T09:21:04.129Z,12.90
2022-12-11T09:23:31.627Z,12.23
2022-12-11T09:25:58.796Z,11.80
2022-12-11T09:28:26.496Z,11.32
2022-12-11T09:30:53.541Z,16.52
2022-12-11T09:33:20.791Z,16.13
2022-12-11T09:35:58.334Z,8.57
2022-12-11T09:38:25.506Z,11.73
2022-12-11T09:40:52.731Z,13.52
2022-12-11T09:43:50.029Z,12.25
2022-12-11T09:46:18.240Z,8.68
2022-12-11T09:48:47.785Z,13.68
2022-12-11T09:51:26.934Z,14.25
2022-12-11T09:53:59.636Z,11.98
2022-12-11T09:56:30.519Z,9.80
2022-12-11T09:59:03.373Z,13.73
2022-12-11T10:01:42.517Z,11.90
2022-12-11T10:04:34.664Z,14.35
2022-12-11T10:07:24.802Z,14.68
2022-12-11T10:10:03.270Z,7.95
2022-12-11T10:13:26.004Z,16.25
2022-12-11T10:16:04.207Z,8.13
2022-12-11T10:18:32.746Z,10.95
2022-12-11T10:21:02.849Z,10.85
2022-12-11T10:23:36.463Z,14.27
2022-12-11T10:26:12.936Z,10.25
2022-12-11T10:28:40.088Z,7.43
2022-12-11T10:31:18.352Z,8.00
2022-12-11T10:33:57.140Z,11.95
2022-12-11T10:36:31.581Z,9.90
2022-12-11T10:38:59.437Z,12.30
2022-12-11T10:41:40.923Z,10.07
2022-12-11T10:44:21.628Z,7.80
2022-12-11T10:47:08.567Z,10.68
2022-12-11T10:49:37.376Z,6.00
2022-12-11T10:52:24.991Z,9.07
2022-12-11T10:55:10.467Z,8.10
2022-12-11T10:57:39.439Z,6.70
2022-12-11T11:00:08.954Z,6.20
2022-12-11T11:02:38.880Z,7.82
2022-12-11T11:05:36.439Z,9.25
2022-12-11T11:08:15.432Z,10.48
2022-12-11T11:11:20.167Z,7.65
2022-12-11T11:13:47.241Z,8.43
2022-12-11T11:16:17.886Z,6.68
2022-12-11T11:18:53.339Z,8.07
2022-12-11T11:21:24.346Z,6.45
2022-12-11T11:23:53.911Z,7.53
2022-12-11T11:26:38.256Z,6.93
2022-12-11T11:29:27.952Z,8.07
2022-12-11T11:31:55.281Z,5.73
2022-12-11T11:34:22.445Z,13.40
2022-12-11T11:36:58.040Z,5.85
2022-12-11T11:39:32.828Z,4.22
2022-12-11T11:42:55.674Z,5.72
2022-12-11T11:45:29.817Z,6.95
2022-12-11T11:48:24.906Z,5.75
2022-12-11T11:50:54.051Z,5.40
2022-12-11T11:53:37.404Z,7.80
2022-12-11T11:56:22.808Z,6.80
2022-12-11T11:59:06.849Z,4.68
2022-12-11T12:01:33.986Z,5.18
2022-12-11T12:04:02.789Z,4.63
2022-12-11T12:07:07.479Z,4.68
2022-12-11T12:09:51.935Z,4.97
2022-12-11T12:12:28.614Z,6.43
2022-12-11T12:15:22.840Z,3.70
2022-12-11T12:17:56.717Z,5.07
2022-12-11T12:20:53.952Z,3.08
2022-12-11T12:23:41.367Z,4.00
2022-12-11T12:26:47.280Z,4.07
2022-12-11T12:29:23.609Z,3.33
2022-12-11T12:32:02.452Z,5.63
2022-12-11T12:34:45.073Z,6.22
2022-12-11T12:37:24.278Z,4.97
2022-12-11T12:40:13.573Z,5.85
2022-12-11T12:42:52.801Z,4.45
2022-12-11T12:45:35.171Z,7.97
2022-12-11T12:48:03.436Z,5.93
2022-12-11T12:50:38.834Z,6.20
2022-12-11T12:53:07.813Z,5.68
2022-12-11T12:55:36.002Z,6.70
2022-12-11T12:58:05.873Z,4.03
2022-12-11T13:00:44.194Z,5.00
2022-12-11T13:03:20.411Z,5.20
2022-12-11T13:06:01.745Z,4.50
2022-12-11T13:08:35.087Z,7.45
2022-12-11T13:11:11.602Z,6.88
2022-12-11T13:13:42.647Z,7.13
2022-12-11T13:16:15.792Z,5.78
2022-12-11T13:18:48.368Z,5.47
2022-12-11T13:21:36.413Z,4.32
2022-12-11T13:24:14.533Z,4.63
2022-12-11T13:26:43.292Z,6.25
2022-12-11T13:29:34.212Z,3.55
2022-12-11T13:32:23.628Z,3.03
2022-12-11T13:34:57.885Z,5.32
2022-12-11T13:37:33.974Z,5.57
2022-12-11T13:40:09.291Z,5.30
2022-12-11T13:42:49.448Z,4.78
2022-12-11T13:45:24.184Z,4.43
2022-12-11T13:47:51.539Z,5.38
2022-12-11T13:50:24.503Z,6.22
2022-12-11T13:52:56.492Z,4.45
2022-12-11T13:55:30.354Z,3.42
2022-12-11T13:57:58.389Z,4.80
2022-12-11T14:00:28.086Z,2.30
2022-12-11T14:02:58.953Z,4.03
2022-12-11T14:05:26.261Z,4.90
2022-12-11T14:07:59.039Z,3.53
2022-12-11T14:10:29.855Z,3.67
2022-12-11T14:13:02.627Z,2.95
2022-12-11T14:15:31.867Z,5.22
2022-12-11T14:18:00.996Z,5.50
2022-12-11T14:20:33.932Z,4.07
2022-12-11T14:23:08.057Z,4.93
2022-12-11T14:25:35.076Z,4.10
2022-12-11T14:28:02.282Z,5.88
2022-12-11T14:30:33.340Z,5.55
2022-12-11T14:33:05.449Z,2.70
2022-12-11T14:35:40.497Z,6.57
2022-12-11T14:38:33.776Z,2.88
2022-12-11T14:41:07.802Z,6.10
2022-12-11T14:43:42.731Z,5.10
2022-12-11T14:46:18.460Z,7.13
2022-12-11T14:49:15.807Z,4.95
2022-12-11T14:51:43.570Z,5.05
2022-12-11T14:54:24.119Z,6.75
2022-12-11T14:56:51.402Z,5.80
2022-12-11T14:59:28.348Z,5.32
2022-12-11T15:01:59.412Z,4.38
2022-12-11T15:04:32.914Z,3.63
2022-12-11T15:07:00.752Z,6.65
2022-12-11T15:09:33.919Z,7.20
2022-12-11T15:12:10.881Z,4.47
2022-12-11T15:14:52.298Z,4.97
2022-12-11T15:17:20.923Z,3.65
2022-12-11T15:20:02.012Z,4.57
2022-12-11T15:22:32.177Z,7.90
2022-12-11T15:25:00.464Z,5.15
2022-12-11T15:27:39.083Z,5.85
2022-12-11T15:30:18.314Z,6.25
2022-12-11T15:32:45.958Z,4.40
2022-12-11T15:35:24.708Z,4.65
2022-12-11T15:37:56.437Z,3.78
2022-12-11T15:40:24.474Z,2.72
2022-12-11T15:42:52.458Z,6.50
2022-12-11T15:45:22.104Z,4.78
2022-12-11T15:47:50.045Z,4.90
2022-12-11T15:50:22.101Z,6.20
2022-12-11T15:52:50.708Z,5.13
2022-12-11T15:55:18.611Z,4.68
2022-12-11T15:57:49.431Z,5.68
2022-12-11T16:00:21.404Z,5.35
2022-12-11T16:02:48.698Z,5.00
2022-12-11T16:05:16.057Z,8.30
2022-12-11T16:07:43.268Z,3.58
2022-12-11T16:10:17.872Z,7.13
2022-12-11T16:12:45.681Z,11.85
2022-12-11T16:15:20.155Z,13.65
2022-12-11T16:17:50.460Z,16.58
2022-12-11T16:20:17.713Z,17.98
2022-12-11T16:22:44.881Z,14.30
2022-12-11T16:25:12.305Z,13.75
2022-12-11T16:27:39.501Z,14.45
2022-12-11T16:30:10.907Z,10.40
2022-12-11T16:32:38.149Z,13.48
2022-12-11T16:35:05.673Z,13.70
2022-12-11T16:37:32.671Z,9.43
2022-12-11T16:40:00.380Z,9.70
2022-12-11T16:42:27.536Z,12.13
2022-12-11T16:44:54.671Z,13.68
2022-12-11T16:47:21.763Z,12.25
2022-12-11T16:49:48.898Z,11.80
2022-12-11T16:52:21.796Z,12.82
